Terminal Aerodrome Forecast
Issued by NWS Raleigh/Durham, NC

Home | Current Version | Previous Version | Text Only | Print | Product List | Glossary On
Versions: 1 2 3 4 5 6 7 8 9 10 11 12 13 14 15 16 17 18 19 20 21 22 23 24 25 26 27 28 29 30 31 32
000
FTUS42 KRAH 281727
TAFGSO
TAF
KGSO 281727Z 2818/0118 21008KT P6SM SCT035
     FM010000 20005KT P6SM VCSH OVC035
     FM010600 20008KT P6SM OVC040
     FM011000 21011KT P6SM BKN020
      TEMPO 0110/0113 BKN003
     FM011400 21015G28KT P6SM SCT035 BKN150
      TEMPO 0114/0118 22020G35KT=

USA.gov is the U.S. government's official web portal to all federal, state and local government web resources and services.